createdAt,value
2023-12-30T00:00:32.757Z,86745.20
2023-12-30T00:03:02.018Z,86746.00
2023-12-30T00:05:43.114Z,86749.60
2023-12-30T00:08:12.159Z,86743.60
2023-12-30T00:10:41.301Z,86747.60
2023-12-30T00:13:12.149Z,86743.00
2023-12-30T00:15:44.532Z,86743.00
2023-12-30T00:18:13.952Z,86743.00
2023-12-30T00:20:43.060Z,86748.40
2023-12-30T00:23:20.117Z,86747.40
2023-12-30T00:26:08.512Z,86748.80
2023-12-30T00:28:40.816Z,86751.40
2023-12-30T00:31:12.460Z,86754.40
2023-12-30T00:33:47.510Z,86746.80
2023-12-30T00:36:19.584Z,86752.80
2023-12-30T00:38:48.660Z,86746.80
2023-12-30T00:41:17.727Z,86747.40
2023-12-30T00:43:46.954Z,86752.40
2023-12-30T00:46:18.235Z,86756.40
2023-12-30T00:48:56.342Z,86757.20
2023-12-30T00:51:26.890Z,86755.80
2023-12-30T00:53:56.060Z,86750.60
2023-12-30T00:56:25.179Z,86750.60
2023-12-30T00:58:54.092Z,86745.80
2023-12-30T01:01:23.223Z,86754.00
2023-12-30T01:03:52.335Z,86741.80
2023-12-30T01:06:21.450Z,86749.80
2023-12-30T01:08:50.430Z,86750.00
2023-12-30T01:11:19.747Z,86753.20
2023-12-30T01:13:51.595Z,86751.00
2023-12-30T01:16:20.829Z,86748.60
2023-12-30T01:18:49.982Z,86748.20
2023-12-30T01:21:20.583Z,86748.60
2023-12-30T01:23:49.633Z,86747.60
2023-12-30T01:26:18.781Z,86741.80
2023-12-30T01:28:47.836Z,86741.80
2023-12-30T01:31:19.419Z,86743.00
2023-12-30T01:33:48.446Z,86742.00
2023-12-30T01:36:17.665Z,86740.00
2023-12-30T01:38:46.744Z,86739.60
2023-12-30T01:41:16.288Z,86738.00
2023-12-30T01:43:45.793Z,86732.00
2023-12-30T01:46:15.554Z,86733.00
2023-12-30T01:48:44.969Z,86731.20
2023-12-30T01:51:24.675Z,86728.00
2023-12-30T01:53:57.862Z,86718.80
2023-12-30T01:56:28.022Z,86716.80
2023-12-30T01:59:01.417Z,86709.60
2023-12-30T02:04:45.143Z,86711.20
2023-12-30T02:07:14.494Z,86711.60
2023-12-30T02:09:43.399Z,86704.20
2023-12-30T02:12:15.528Z,86705.40
2023-12-30T02:14:44.519Z,86708.00
2023-12-30T02:17:14.314Z,86706.40
2023-12-30T02:19:43.372Z,86711.60
2023-12-30T02:22:12.333Z,86706.80
2023-12-30T02:24:41.465Z,86704.00
2023-12-30T02:27:11.735Z,86699.80
2023-12-30T02:29:40.714Z,86694.00
2023-12-30T02:32:09.861Z,86693.00
2023-12-30T02:34:39.302Z,86689.20
2023-12-30T02:37:08.444Z,86687.40
2023-12-30T02:39:40.606Z,86700.40
2023-12-30T02:42:09.895Z,86698.40
2023-12-30T02:44:39.462Z,86692.40
2023-12-30T02:47:09.000Z,86696.40
2023-12-30T02:49:38.571Z,86696.20
2023-12-30T02:52:08.054Z,86701.00
2023-12-30T02:54:37.824Z,86700.40
2023-12-30T02:57:08.154Z,86694.40
2023-12-30T02:59:37.300Z,86695.80
2023-12-30T03:02:06.690Z,86697.40
2023-12-30T03:04:35.882Z,86700.20
2023-12-30T03:07:05.233Z,86704.00
2023-12-30T03:09:34.576Z,86701.60
2023-12-30T03:12:07.047Z,86698.60
2023-12-30T03:14:36.298Z,86688.40
2023-12-30T03:17:05.620Z,86686.80
2023-12-30T03:19:35.199Z,86690.20
2023-12-30T03:22:20.992Z,86692.00
2023-12-30T03:24:50.222Z,86690.00
2023-12-30T03:27:19.196Z,86675.80
2023-12-30T03:29:48.202Z,86680.00
2023-12-30T03:32:52.075Z,86684.00
2023-12-30T03:35:20.669Z,86682.60
2023-12-30T03:37:49.262Z,86680.20
2023-12-30T03:40:17.684Z,86683.00
2023-12-30T03:42:46.009Z,86677.20
2023-12-30T03:45:14.258Z,86681.40
2023-12-30T03:47:43.517Z,86677.40
2023-12-30T03:50:12.816Z,86677.00
2023-12-30T03:52:41.293Z,86677.80
2023-12-30T03:55:10.385Z,86674.00
2023-12-30T03:57:38.903Z,86674.80
2023-12-30T04:00:08.122Z,86673.40
2023-12-30T04:02:37.016Z,86670.80
2023-12-30T04:05:06.519Z,86662.20
2023-12-30T04:07:35.427Z,86659.20
2023-12-30T04:10:04.335Z,86658.00
2023-12-30T04:12:52.536Z,86654.40
2023-12-30T04:15:38.949Z,86654.00
2023-12-30T04:18:12.897Z,86649.20
2023-12-30T04:20:44.840Z,86643.80
2023-12-30T04:23:14.422Z,86640.20
2023-12-30T04:25:43.773Z,86638.40
2023-12-30T04:28:13.449Z,86639.60
2023-12-30T04:30:42.500Z,86638.60
2023-12-30T04:33:11.787Z,86640.00
2023-12-30T04:35:44.497Z,86643.40
2023-12-30T04:38:14.100Z,86643.40
2023-12-30T04:40:43.591Z,86642.60
2023-12-30T04:43:12.964Z,86646.20
2023-12-30T04:45:42.485Z,86653.60
2023-12-30T04:48:12.827Z,86655.00
2023-12-30T04:50:42.665Z,86646.80
2023-12-30T04:53:11.980Z,86646.20
2023-12-30T04:55:41.520Z,86642.80
2023-12-30T04:58:10.470Z,86638.80
2023-12-30T05:00:40.768Z,86641.40
2023-12-30T05:03:10.218Z,86635.60
2023-12-30T05:05:39.651Z,86631.40
2023-12-30T05:08:10.360Z,86631.80
2023-12-30T05:10:39.706Z,86634.60
2023-12-30T05:13:09.291Z,86636.80
2023-12-30T05:15:38.785Z,86629.40
2023-12-30T05:18:08.301Z,86619.20
2023-12-30T05:20:37.899Z,86622.00
2023-12-30T05:23:07.743Z,86616.80
2023-12-30T05:25:37.108Z,86617.20
2023-12-30T05:28:06.255Z,86617.20
2023-12-30T05:30:35.705Z,86616.20
2023-12-30T05:33:05.910Z,86615.80
2023-12-30T05:35:35.346Z,86607.60
2023-12-30T05:41:27.467Z,86612.80
2023-12-30T05:43:56.271Z,86610.80
2023-12-30T05:46:24.875Z,86608.00
2023-12-30T05:48:53.305Z,86608.40
2023-12-30T05:51:23.262Z,86606.80
2023-12-30T05:53:55.815Z,86601.40
2023-12-30T05:56:28.585Z,86605.00
2023-12-30T05:58:56.968Z,86607.20
2023-12-30T06:01:28.315Z,86609.80
2023-12-30T06:03:56.866Z,86622.20
2023-12-30T06:06:26.478Z,86614.60
2023-12-30T06:08:55.539Z,86613.00
2023-12-30T06:11:23.682Z,86608.00
2023-12-30T06:13:52.891Z,86606.00
2023-12-30T06:16:21.255Z,86608.80
2023-12-30T06:18:49.793Z,86606.20
2023-12-30T06:21:18.530Z,86607.60
2023-12-30T06:23:47.111Z,86599.80
2023-12-30T06:26:15.661Z,86603.80
2023-12-30T06:28:44.981Z,86603.00
2023-12-30T06:31:13.620Z,86608.20
2023-12-30T06:33:42.342Z,86608.40
2023-12-30T06:36:12.878Z,86606.80
2023-12-30T06:38:41.214Z,86608.60
2023-12-30T06:41:09.538Z,86611.40
2023-12-30T06:43:37.784Z,86601.60
2023-12-30T06:46:06.668Z,86597.60
2023-12-30T06:48:34.934Z,86604.40
2023-12-30T06:51:04.221Z,86598.20
2023-12-30T06:53:33.212Z,86597.00
2023-12-30T06:56:11.106Z,86594.40
2023-12-30T06:58:39.435Z,86595.40
2023-12-30T07:01:07.746Z,86598.00
2023-12-30T07:03:39.661Z,86597.60
2023-12-30T07:06:08.284Z,86599.20
2023-12-30T07:08:36.666Z,86595.60
2023-12-30T07:11:07.111Z,86593.00
2023-12-30T07:17:04.442Z,86593.80
2023-12-30T07:19:33.394Z,86591.20
2023-12-30T07:22:01.758Z,86586.00
2023-12-30T07:24:30.064Z,86584.00
2023-12-30T07:26:59.587Z,86590.00
2023-12-30T07:29:30.283Z,86587.60
2023-12-30T07:31:58.632Z,86596.00
2023-12-30T07:34:27.273Z,86594.40
2023-12-30T07:37:12.104Z,86590.60
2023-12-30T07:39:41.367Z,86592.60
2023-12-30T07:42:10.437Z,86593.20
2023-12-30T07:44:40.035Z,86591.00
2023-12-30T07:47:09.239Z,86591.20
2023-12-30T07:49:38.628Z,86592.60
2023-12-30T07:52:08.023Z,86599.20
2023-12-30T07:54:36.955Z,86595.60
2023-12-30T07:57:06.303Z,86600.00
2023-12-30T07:59:35.268Z,86600.80
2023-12-30T08:02:04.555Z,86597.00
2023-12-30T08:04:33.413Z,86591.40
2023-12-30T08:07:02.315Z,86590.80
2023-12-30T08:09:31.302Z,86587.40
2023-12-30T08:12:02.926Z,86590.40
2023-12-30T08:14:33.086Z,86588.40
2023-12-30T08:17:01.964Z,86585.60
2023-12-30T08:19:30.914Z,86580.20
2023-12-30T08:21:59.723Z,86587.80
2023-12-30T08:24:30.419Z,86583.00
2023-12-30T08:26:59.212Z,86578.40
2023-12-30T08:29:28.012Z,86579.60
2023-12-30T08:31:57.038Z,86575.40
2023-12-30T08:34:29.986Z,86576.40
2023-12-30T08:36:59.035Z,86575.80
2023-12-30T08:39:28.063Z,86572.80
2023-12-30T08:41:56.941Z,86572.60
2023-12-30T08:44:29.008Z,86574.20
2023-12-30T08:46:57.971Z,86582.80
2023-12-30T08:49:26.876Z,86582.80
2023-12-30T08:51:56.129Z,86580.20
2023-12-30T08:54:25.152Z,86582.00
2023-12-30T08:56:56.136Z,86576.80
2023-12-30T08:59:26.987Z,86576.80
2023-12-30T09:01:56.301Z,86570.80
2023-12-30T09:04:27.488Z,86580.00
2023-12-30T09:06:57.410Z,86573.20
2023-12-30T09:09:26.343Z,86573.40
2023-12-30T09:11:55.416Z,86578.60
2023-12-30T09:14:26.206Z,86574.20
2023-12-30T09:16:55.552Z,86572.60
2023-12-30T09:19:24.502Z,86577.80
2023-12-30T09:21:57.224Z,86578.20
2023-12-30T09:24:26.298Z,86575.60
2023-12-30T09:26:55.557Z,86581.60
2023-12-30T09:29:24.628Z,86581.80
2023-12-30T09:31:53.649Z,86584.00
2023-12-30T09:34:30.198Z,86580.60
2023-12-30T09:37:07.665Z,86583.20
2023-12-30T09:39:36.860Z,86585.40
2023-12-30T09:42:06.260Z,86583.80
2023-12-30T09:44:36.144Z,86586.00
2023-12-30T09:47:12.372Z,86584.60
2023-12-30T09:49:43.331Z,86582.40
2023-12-30T09:52:12.980Z,86584.60
2023-12-30T09:54:48.472Z,86586.80
2023-12-30T09:57:18.912Z,86587.20
2023-12-30T09:59:51.022Z,86586.80
2023-12-30T10:02:20.152Z,86582.20
2023-12-30T10:04:51.873Z,86580.20
2023-12-30T10:07:23.369Z,86576.00
2023-12-30T10:10:59.002Z,86575.00
2023-12-30T10:13:28.766Z,86572.20
2023-12-30T10:16:00.699Z,86568.20
2023-12-30T10:18:29.832Z,86567.80
2023-12-30T10:20:59.706Z,86572.80
2023-12-30T10:23:33.765Z,86570.40
2023-12-30T10:26:06.778Z,86563.80
2023-12-30T10:28:35.303Z,86567.00
2023-12-30T10:31:08.970Z,86558.80
2023-12-30T10:33:37.854Z,86555.80
2023-12-30T10:36:12.885Z,86561.20
2023-12-30T10:38:42.629Z,86557.80
2023-12-30T10:41:10.948Z,86562.60
2023-12-30T10:43:40.973Z,86555.60
2023-12-30T10:46:13.682Z,86560.60
2023-12-30T10:49:05.754Z,86553.80
2023-12-30T10:51:36.993Z,86553.40
2023-12-30T10:54:12.453Z,86546.20
2023-12-30T10:57:01.247Z,86542.40
2023-12-30T10:59:31.311Z,86538.60
2023-12-30T11:02:16.744Z,86540.40
2023-12-30T11:04:53.610Z,86541.40
2023-12-30T11:07:27.771Z,86538.80
2023-12-30T11:09:56.872Z,86540.80
2023-12-30T11:16:59.105Z,86533.80
2023-12-30T11:19:30.401Z,86530.20
2023-12-30T11:22:09.451Z,86535.40
2023-12-30T11:24:46.847Z,86535.20
2023-12-30T11:27:21.534Z,86529.80
2023-12-30T11:29:54.564Z,86523.40
2023-12-30T11:32:28.630Z,86521.00
2023-12-30T11:35:00.960Z,86517.20
2023-12-30T11:37:30.120Z,86517.60
2023-12-30T11:40:01.116Z,86518.00
2023-12-30T11:42:37.828Z,86521.20
2023-12-30T11:45:13.812Z,86517.00
2023-12-30T11:47:44.002Z,86510.80
2023-12-30T11:50:15.639Z,86503.60
2023-12-30T11:52:49.989Z,86512.60
2023-12-30T11:55:23.655Z,86509.40
2023-12-30T11:57:52.623Z,86502.20
2023-12-30T12:00:23.036Z,86501.40
2023-12-30T12:02:51.493Z,86493.20
2023-12-30T12:05:19.903Z,86495.00
2023-12-30T12:07:51.285Z,86494.20
2023-12-30T12:10:22.724Z,86490.60
2023-12-30T12:12:51.352Z,86493.60
2023-12-30T12:15:19.670Z,86489.80
2023-12-30T12:17:51.940Z,86485.00
2023-12-30T12:20:22.631Z,86480.40
2023-12-30T12:22:56.888Z,86480.60
2023-12-30T12:25:25.210Z,86482.80
2023-12-30T12:27:53.802Z,86479.20
2023-12-30T12:30:22.138Z,86483.80
2023-12-30T12:32:50.346Z,86476.40
2023-12-30T12:35:18.641Z,86474.20
2023-12-30T12:37:46.997Z,86473.60
2023-12-30T12:40:15.433Z,86475.20
2023-12-30T12:42:43.673Z,86471.00
2023-12-30T12:45:11.949Z,86473.40
2023-12-30T12:47:58.049Z,86465.60
2023-12-30T12:50:26.967Z,86466.60
2023-12-30T12:52:56.122Z,86467.40
2023-12-30T12:55:25.038Z,86467.40
2023-12-30T12:57:54.248Z,86469.60
2023-12-30T13:00:23.058Z,86463.00
2023-12-30T13:02:52.340Z,86461.20
2023-12-30T13:05:24.209Z,86468.00
2023-12-30T13:07:53.534Z,86465.20
2023-12-30T13:10:22.917Z,86463.60
2023-12-30T13:12:52.316Z,86459.00
2023-12-30T13:15:23.756Z,86463.20
2023-12-30T13:17:53.452Z,86457.60
2023-12-30T13:20:23.134Z,86459.00
2023-12-30T13:22:57.623Z,86461.00
2023-12-30T13:25:33.113Z,86453.20
2023-12-30T13:28:02.198Z,86451.40
2023-12-30T13:30:31.074Z,86450.80
2023-12-30T13:33:03.888Z,86444.60
2023-12-30T13:35:36.754Z,86447.80
2023-12-30T13:38:14.214Z,86442.60
2023-12-30T13:40:45.113Z,86448.00
2023-12-30T13:43:14.370Z,86447.60
2023-12-30T13:45:48.840Z,86446.20
2023-12-30T13:48:17.918Z,86443.40
2023-12-30T13:50:54.694Z,86446.40
2023-12-30T13:53:26.476Z,86440.80
2023-12-30T13:55:59.576Z,86441.80
2023-12-30T13:58:30.869Z,86444.20
2023-12-30T14:01:01.083Z,86449.60
2023-12-30T14:03:31.160Z,86445.60
2023-12-30T14:06:00.994Z,86443.80
2023-12-30T14:08:44.500Z,86444.00
2023-12-30T14:11:31.989Z,86445.80
2023-12-30T14:14:04.146Z,86441.80
2023-12-30T14:16:33.732Z,86444.60
2023-12-30T14:19:03.757Z,86439.40
2023-12-30T14:21:34.609Z,86442.00
2023-12-30T14:24:04.654Z,86441.60
2023-12-30T14:26:33.747Z,86433.20
2023-12-30T14:29:02.968Z,86426.20
2023-12-30T14:31:32.821Z,86431.40
2023-12-30T14:34:02.153Z,86436.20
2023-12-30T14:36:31.194Z,86428.80
2023-12-30T14:39:05.371Z,86429.00
2023-12-30T14:41:36.272Z,86429.60
2023-12-30T14:44:05.405Z,86419.40
2023-12-30T14:46:34.389Z,86422.00
2023-12-30T14:49:03.735Z,86417.80
2023-12-30T14:51:34.166Z,86416.00
2023-12-30T14:54:05.847Z,86413.00
2023-12-30T14:56:38.205Z,86410.60
2023-12-30T14:59:07.173Z,86413.60
2023-12-30T15:01:36.223Z,86417.40
2023-12-30T15:04:06.608Z,86412.00
2023-12-30T15:06:37.167Z,86407.60
2023-12-30T15:09:08.967Z,86406.40
2023-12-30T15:11:40.679Z,86410.00
2023-12-30T15:14:09.482Z,86409.60
2023-12-30T15:16:39.283Z,86404.80
2023-12-30T15:19:08.706Z,86407.60
2023-12-30T15:21:38.196Z,86409.40
2023-12-30T15:24:07.697Z,86405.80
2023-12-30T15:26:36.577Z,86407.00
2023-12-30T15:32:13.812Z,86397.20
2023-12-30T15:34:43.175Z,86396.80
2023-12-30T15:37:15.977Z,86396.60
2023-12-30T15:39:45.151Z,86410.20
2023-12-30T15:42:14.221Z,86402.40
2023-12-30T15:44:43.275Z,86394.40
2023-12-30T15:47:12.837Z,86400.20
2023-12-30T15:49:42.524Z,86401.20
2023-12-30T15:52:12.977Z,86399.00
2023-12-30T15:54:42.085Z,86402.00
2023-12-30T15:59:36.013Z,86399.20
2023-12-30T16:02:06.016Z,86395.60
2023-12-30T16:04:35.555Z,86400.00
2023-12-30T16:07:04.985Z,86400.20
2023-12-30T16:09:34.142Z,86398.60
2023-12-30T16:15:13.426Z,86399.00
2023-12-30T16:17:44.193Z,86398.80
2023-12-30T16:20:14.535Z,86399.60
2023-12-30T16:22:44.088Z,86400.60
2023-12-30T16:25:13.338Z,86398.20
2023-12-30T16:27:42.365Z,86397.40
2023-12-30T16:30:11.797Z,86401.80
2023-12-30T16:32:43.893Z,86398.00
2023-12-30T16:35:13.051Z,86401.20
2023-12-30T16:37:42.129Z,86403.20
2023-12-30T16:40:11.992Z,86406.00
2023-12-30T16:42:41.127Z,86404.60
2023-12-30T16:45:10.557Z,86412.80
2023-12-30T16:47:39.768Z,86411.40
2023-12-30T16:50:09.758Z,86410.00
2023-12-30T16:52:42.518Z,86408.80
2023-12-30T16:55:13.413Z,86406.00
2023-12-30T16:57:42.351Z,86404.60
2023-12-30T17:00:13.059Z,86406.80
2023-12-30T17:02:42.280Z,86404.00
2023-12-30T17:05:11.519Z,86404.00
2023-12-30T17:07:40.552Z,86405.20
2023-12-30T17:10:11.157Z,86400.20
2023-12-30T17:12:40.233Z,86402.60
2023-12-30T17:15:10.633Z,86407.00
2023-12-30T17:17:39.771Z,86400.80
2023-12-30T17:20:10.140Z,86397.80
2023-12-30T17:22:39.531Z,86403.00
2023-12-30T17:25:09.171Z,86399.00
2023-12-30T17:27:38.920Z,86401.60
2023-12-30T17:30:08.938Z,86402.60
2023-12-30T17:32:37.923Z,86396.40
2023-12-30T17:35:10.570Z,86402.00
2023-12-30T17:37:39.982Z,86395.60
2023-12-30T17:40:13.494Z,86390.60
2023-12-30T17:42:42.483Z,86393.20
2023-12-30T17:45:14.880Z,86391.40
2023-12-30T17:47:44.937Z,86390.80
2023-12-30T17:50:13.872Z,86386.60
2023-12-30T17:52:43.053Z,86377.40
2023-12-30T17:55:12.275Z,86379.20
2023-12-30T17:57:41.578Z,86378.60
2023-12-30T18:00:11.228Z,86377.80
2023-12-30T18:02:41.501Z,86377.40
2023-12-30T18:05:11.200Z,86371.60
2023-12-30T18:07:56.386Z,86371.40
2023-12-30T18:10:27.426Z,86369.80
2023-12-30T18:12:57.113Z,86362.40
2023-12-30T18:15:26.105Z,86356.00
2023-12-30T18:17:55.327Z,86348.00
2023-12-30T18:20:24.518Z,86347.80
2023-12-30T18:22:54.517Z,86351.80
2023-12-30T18:25:23.579Z,86343.80
2023-12-30T18:27:52.990Z,86339.20
2023-12-30T18:30:21.880Z,86338.20
2023-12-30T18:32:50.844Z,86326.40
2023-12-30T18:35:19.701Z,86322.20
2023-12-30T18:37:49.049Z,86328.20
2023-12-30T18:40:18.524Z,86329.20
2023-12-30T18:42:47.644Z,86322.60
2023-12-30T18:45:16.921Z,86326.80
2023-12-30T18:47:45.952Z,86317.20
2023-12-30T18:50:16.060Z,86312.80
2023-12-30T18:52:46.975Z,86310.20
2023-12-30T18:55:15.974Z,86297.00
2023-12-30T18:57:45.056Z,86296.40
2023-12-30T19:00:15.321Z,86296.80
2023-12-30T19:02:44.402Z,86295.40
2023-12-30T19:05:13.429Z,86295.00
2023-12-30T19:07:45.867Z,86289.40
2023-12-30T19:10:15.144Z,86291.00
2023-12-30T19:12:44.484Z,86293.20
2023-12-30T19:15:13.583Z,86291.00
2023-12-30T19:17:42.708Z,86282.20
2023-12-30T19:20:12.683Z,86282.00
2023-12-30T19:22:41.780Z,86283.40
2023-12-30T19:25:11.618Z,86282.60
2023-12-30T19:27:41.477Z,86272.20
2023-12-30T19:30:11.014Z,86267.60
2023-12-30T19:32:39.890Z,86269.80
2023-12-30T19:35:09.909Z,86269.00
2023-12-30T19:37:39.340Z,86262.60
2023-12-30T19:40:09.450Z,86266.20
2023-12-30T19:42:38.442Z,86261.20
2023-12-30T19:45:11.262Z,86262.20
2023-12-30T19:47:46.244Z,86254.60
2023-12-30T19:50:15.475Z,86253.40
2023-12-30T19:52:44.526Z,86252.40
2023-12-30T19:55:14.097Z,86252.00
2023-12-30T19:57:46.077Z,86248.40
2023-12-30T20:00:16.015Z,86246.00
2023-12-30T20:02:46.091Z,86251.20
2023-12-30T20:05:16.006Z,86246.20
2023-12-30T20:07:45.381Z,86243.60
2023-12-30T20:10:14.894Z,86242.40
2023-12-30T20:12:44.874Z,86237.60
2023-12-30T20:15:13.906Z,86235.20
2023-12-30T20:17:43.070Z,86227.80
2023-12-30T20:20:12.899Z,86231.20
2023-12-30T20:22:43.223Z,86228.60
2023-12-30T20:25:12.886Z,86227.00
2023-12-30T20:27:43.441Z,86223.20
2023-12-30T20:30:13.026Z,86221.20
2023-12-30T20:32:42.622Z,86217.00
2023-12-30T20:35:11.769Z,86218.40
2023-12-30T20:37:40.860Z,86220.00
2023-12-30T20:40:12.264Z,86221.20
2023-12-30T20:42:41.737Z,86215.00
2023-12-30T20:45:12.267Z,86208.80
2023-12-30T20:47:43.260Z,86210.20
2023-12-30T20:50:16.794Z,86203.20
2023-12-30T20:52:45.930Z,86204.00
2023-12-30T20:55:17.435Z,86189.80
2023-12-30T20:57:47.259Z,86193.60
2023-12-30T21:00:16.434Z,86191.60
2023-12-30T21:02:45.526Z,86188.60
2023-12-30T21:05:15.212Z,86187.60
2023-12-30T21:07:44.959Z,86186.20
2023-12-30T21:10:17.078Z,86181.00
2023-12-30T21:12:46.668Z,86184.40
2023-12-30T21:15:15.715Z,86177.00
2023-12-30T21:17:44.812Z,86171.00
2023-12-30T21:20:51.127Z,86175.00
2023-12-30T21:23:21.930Z,86172.80
2023-12-30T21:25:52.017Z,86176.00
2023-12-30T21:28:22.999Z,86176.00
2023-12-30T21:30:52.002Z,86180.80
2023-12-30T21:33:20.416Z,86173.80
2023-12-30T21:35:48.849Z,86178.40
2023-12-30T21:38:17.571Z,86172.60
2023-12-30T21:40:46.096Z,86172.00
2023-12-30T21:43:14.482Z,86175.40
2023-12-30T21:45:42.763Z,86172.60
2023-12-30T21:48:12.729Z,86173.60
2023-12-30T21:50:41.595Z,86164.80
2023-12-30T21:56:26.639Z,86172.80
2023-12-30T21:58:55.631Z,86168.60
2023-12-30T22:01:34.764Z,86163.20
2023-12-30T22:04:04.153Z,86160.80
2023-12-30T22:06:35.481Z,86159.60
2023-12-30T22:09:07.146Z,86160.80
2023-12-30T22:11:39.775Z,86163.60
2023-12-30T22:14:10.800Z,86161.60
2023-12-30T22:16:44.511Z,86160.80
2023-12-30T22:19:14.550Z,86164.40
2023-12-30T22:21:44.728Z,86164.60
2023-12-30T22:24:14.652Z,86167.20
2023-12-30T22:26:44.791Z,86162.60
2023-12-30T22:29:16.521Z,86165.00
2023-12-30T22:31:48.684Z,86170.00
2023-12-30T22:34:18.675Z,86169.00
2023-12-30T22:36:51.019Z,86166.80
2023-12-30T22:39:21.092Z,86176.20
2023-12-30T22:41:51.193Z,86180.40
2023-12-30T22:44:21.034Z,86177.80
2023-12-30T22:46:54.372Z,86183.60
2023-12-30T22:49:28.021Z,86182.80
2023-12-30T22:51:57.905Z,86182.80
2023-12-30T22:54:27.930Z,86182.20
2023-12-30T22:56:57.844Z,86185.60
2023-12-30T22:59:30.530Z,86184.60
2023-12-30T23:02:00.910Z,86181.40
2023-12-30T23:04:33.373Z,86181.80
2023-12-30T23:07:02.531Z,86181.40
2023-12-30T23:09:32.006Z,86178.60
2023-12-30T23:12:00.971Z,86183.20
2023-12-30T23:14:29.749Z,86182.80
2023-12-30T23:16:58.795Z,86185.20
2023-12-30T23:19:28.060Z,86185.40
2023-12-30T23:21:57.420Z,86186.60
2023-12-30T23:24:29.646Z,86188.20
2023-12-30T23:26:58.585Z,86186.00
2023-12-30T23:29:28.651Z,86189.20
2023-12-30T23:31:57.883Z,86189.00
2023-12-30T23:34:38.806Z,86188.60
2023-12-30T23:37:14.534Z,86191.60
2023-12-30T23:39:46.643Z,86189.80
2023-12-30T23:42:15.874Z,86192.80
2023-12-30T23:44:45.800Z,86191.40
2023-12-30T23:47:15.321Z,86191.80
2023-12-30T23:49:44.818Z,86187.40
2023-12-30T23:52:13.776Z,86187.40
2023-12-30T23:54:42.615Z,86186.60
2023-12-30T23:57:11.604Z,86187.00
2023-12-30T23:59:44.122Z,86187.40
